Time;durP1;ratioP1;P1;durP2;ratioP2;P2;SDS_P1;SDS_P2;PMS_P1;PMS_P2;Temp;Humidity;BMP_temperature;BMP_pressure;BME280_temperature;BME280_humidity;BME280_pressure;Samples;Min_cycle;Max_cycle;Signal;HPM_P1;HPM_P2
2022/10/30 00:02:48;;;;;;;12.38;11.10;;;22.50;99.90;;;;;;6217853;28;89037;-66
2022/10/30 00:05:51;;;;;;;12.38;11.13;;;22.50;99.90;;;;;;6216463;28;88993;-66
2022/10/30 00:08:53;;;;;;;12.88;11.35;;;22.50;99.90;;;;;;6217153;28;89166;-66
2022/10/30 00:11:57;;;;;;;12.45;11.23;;;22.50;99.90;;;;;;6218292;28;88427;-66
2022/10/30 00:14:59;;;;;;;12.45;11.25;;;22.50;99.90;;;;;;6225019;28;89186;-66
2022/10/30 00:18:01;;;;;;;12.25;11.05;;;22.50;99.90;;;;;;6228273;28;87990;-66
2022/10/30 00:21:07;;;;;;;13.13;11.77;;;22.50;99.90;;;;;;6219032;28;89048;-66
2022/10/30 00:24:11;;;;;;;13.25;11.90;;;22.50;99.90;;;;;;6217457;28;89382;-66
2022/10/30 00:27:14;;;;;;;12.80;11.60;;;22.50;99.90;;;;;;6230384;28;89127;-66
2022/10/30 00:30:17;;;;;;;12.80;11.50;;;22.50;99.90;;;;;;6224337;28;89235;-66
2022/10/30 00:33:19;;;;;;;13.25;11.90;;;22.50;99.90;;;;;;6218332;28;89182;-66
2022/10/30 00:36:23;;;;;;;13.68;12.27;;;22.50;99.90;;;;;;6230058;28;89066;-66
2022/10/30 00:39:25;;;;;;;13.10;11.80;;;22.50;99.90;;;;;;6205958;28;88840;-66
2022/10/30 00:42:31;;;;;;;12.68;11.48;;;22.50;99.90;;;;;;6223210;28;88237;-66
2022/10/30 00:45:33;;;;;;;13.80;12.45;;;22.50;99.90;;;;;;6218506;28;89170;-66
2022/10/30 00:48:35;;;;;;;13.55;12.15;;;22.50;99.90;;;;;;6222726;28;89053;-66
2022/10/30 00:51:39;;;;;;;13.23;11.93;;;22.50;99.90;;;;;;6215962;28;88920;-66
2022/10/30 00:54:41;;;;;;;13.35;11.98;;;22.40;99.90;;;;;;6228203;28;89244;-66
2022/10/30 00:57:45;;;;;;;13.02;11.80;;;22.40;99.90;;;;;;6217271;28;89118;-66
2022/10/30 01:00:50;;;;;;;13.13;11.80;;;22.50;99.90;;;;;;6227649;28;90512;-66
2022/10/30 01:03:56;;;;;;;13.48;12.15;;;22.50;99.90;;;;;;6211496;28;89524;-66
2022/10/30 01:06:59;;;;;;;13.32;12.02;;;22.40;99.90;;;;;;6226999;28;89431;-66
2022/10/30 01:10:01;;;;;;;13.60;12.20;;;22.40;99.90;;;;;;6237047;28;89010;-66
2022/10/30 01:13:05;;;;;;;13.98;12.57;;;22.40;99.90;;;;;;6216776;28;88289;-66
2022/10/30 01:16:39;;;;;;;13.27;11.98;;;22.50;99.90;;;;;;6213816;28;89232;-66
2022/10/30 01:19:48;;;;;;;14.45;11.93;;;22.40;99.90;;;;;;6216258;28;89428;-66
2022/10/30 01:22:59;;;;;;;13.88;12.43;;;22.40;99.90;;;;;;6221039;28;90023;-66
2022/10/30 01:26:11;;;;;;;14.40;12.80;;;22.40;99.90;;;;;;6233343;28;89070;-66
2022/10/30 01:29:30;;;;;;;13.48;12.07;;;22.40;99.90;;;;;;6232231;28;89137;-66
2022/10/30 01:32:45;;;;;;;13.50;12.20;;;22.40;99.90;;;;;;6223812;28;89195;-66
2022/10/30 01:35:52;;;;;;;13.60;12.20;;;22.40;99.90;;;;;;6225117;28;88008;-66
2022/10/30 01:38:58;;;;;;;12.82;11.60;;;22.40;99.90;;;;;;6221031;28;89081;-66
2022/10/30 01:42:00;;;;;;;13.75;12.30;;;22.40;99.90;;;;;;6224950;28;89193;-66
2022/10/30 01:45:04;;;;;;;12.95;11.65;;;22.40;99.90;;;;;;6222407;28;88340;-66
2022/10/30 01:48:33;;;;;;;12.60;11.30;;;22.40;99.90;;;;;;6234351;28;89298;-66
2022/10/30 01:51:50;;;;;;;14.00;12.32;;;22.40;99.90;;;;;;6228287;28;91392;-67
2022/10/30 01:54:58;;;;;;;14.00;12.40;;;22.30;99.90;;;;;;6235196;28;90270;-66
2022/10/30 01:58:07;;;;;;;12.85;11.55;;;22.40;99.90;;;;;;6236835;28;89078;-67
2022/10/30 02:01:11;;;;;;;13.30;12.00;;;22.40;99.90;;;;;;6230576;28;89035;-67
2022/10/30 02:04:14;;;;;;;12.98;11.68;;;22.30;99.90;;;;;;6224123;28;88697;-67
2022/10/30 02:07:16;;;;;;;13.20;11.90;;;22.30;99.90;;;;;;6237295;28;88000;-67
2022/10/30 02:10:18;;;;;;;13.52;12.23;;;22.40;99.90;;;;;;6236337;28;88119;-66
2022/10/30 02:13:21;;;;;;;13.15;11.85;;;22.30;99.90;;;;;;6235826;28;89222;-67
2022/10/30 02:16:24;;;;;;;12.65;11.45;;;22.30;99.90;;;;;;6232206;28;88286;-66
2022/10/30 02:19:26;;;;;;;13.05;11.65;;;22.40;99.90;;;;;;6232035;28;89084;-67
2022/10/30 02:22:30;;;;;;;12.77;11.48;;;22.30;99.90;;;;;;6221066;28;88995;-67
2022/10/30 02:25:32;;;;;;;12.73;11.52;;;22.40;99.90;;;;;;6229845;28;90010;-66
2022/10/30 02:28:34;;;;;;;13.00;11.70;;;22.40;99.90;;;;;;6216052;28;90190;-67
2022/10/30 02:31:37;;;;;;;12.80;11.35;;;22.30;99.90;;;;;;6214851;28;89087;-66
2022/10/30 02:34:39;;;;;;;12.90;11.60;;;22.40;99.90;;;;;;6227127;28;88229;-66
2022/10/30 02:37:42;;;;;;;12.13;10.93;;;22.30;99.90;;;;;;6223994;28;89099;-66
2022/10/30 02:40:44;;;;;;;13.27;11.93;;;22.30;99.90;;;;;;6219124;28;89394;-67
2022/10/30 02:43:46;;;;;;;12.55;11.25;;;22.30;99.90;;;;;;6220762;28;89067;-66
2022/10/30 02:46:49;;;;;;;12.43;11.23;;;22.40;99.90;;;;;;6232290;28;88674;-66
2022/10/30 02:49:51;;;;;;;12.07;10.80;;;22.30;99.90;;;;;;6231772;28;88528;-67
2022/10/30 02:52:54;;;;;;;12.10;10.90;;;22.30;99.90;;;;;;6224824;28;89134;-66
2022/10/30 02:55:56;;;;;;;12.00;10.80;;;22.30;99.90;;;;;;6214134;28;90026;-66
2022/10/30 02:58:58;;;;;;;12.20;10.90;;;22.30;99.90;;;;;;6229812;28;88954;-67
2022/10/30 03:02:00;;;;;;;11.85;10.65;;;22.30;99.90;;;;;;6230717;28;89126;-66
2022/10/30 03:05:03;;;;;;;11.65;10.55;;;22.30;99.90;;;;;;6222623;28;87970;-66
2022/10/30 03:08:06;;;;;;;11.77;10.57;;;22.30;99.90;;;;;;6227309;28;88963;-66
2022/10/30 03:11:10;;;;;;;12.00;10.80;;;22.30;99.90;;;;;;6230102;28;89093;-66
2022/10/30 03:14:12;;;;;;;11.38;10.20;;;22.30;99.90;;;;;;6226352;28;89298;-66
2022/10/30 03:17:14;;;;;;;11.45;10.27;;;22.30;99.90;;;;;;6209682;28;88637;-66
2022/10/30 03:20:16;;;;;;;11.57;10.48;;;22.30;99.90;;;;;;6231270;28;89014;-67
2022/10/30 03:23:19;;;;;;;11.00;9.90;;;22.30;99.90;;;;;;6233788;28;89165;-66
2022/10/30 03:26:21;;;;;;;11.20;10.13;;;22.20;99.90;;;;;;6230130;28;90033;-67
2022/10/30 03:29:23;;;;;;;11.55;10.35;;;22.30;99.90;;;;;;6230804;28;88989;-66
2022/10/30 03:32:25;;;;;;;11.05;9.93;;;22.30;99.90;;;;;;6217005;28;89026;-67
2022/10/30 03:35:27;;;;;;;10.90;9.82;;;22.30;99.90;;;;;;6232084;28;87957;-66
2022/10/30 03:38:31;;;;;;;11.10;10.00;;;22.20;99.90;;;;;;6232345;28;89031;-66
2022/10/30 03:41:33;;;;;;;11.05;9.95;;;22.30;99.90;;;;;;6212402;28;89049;-66
2022/10/30 03:44:35;;;;;;;10.63;9.60;;;22.30;99.90;;;;;;6214245;28;88708;-66
2022/10/30 03:47:40;;;;;;;10.35;9.30;;;22.30;99.90;;;;;;6231846;28;88448;-67
2022/10/30 03:50:42;;;;;;;10.73;9.73;;;22.30;99.90;;;;;;6228733;28;89293;-67
2022/10/30 03:53:45;;;;;;;10.65;9.55;;;22.20;99.90;;;;;;6221880;28;89340;-67
2022/10/30 03:56:47;;;;;;;10.77;9.77;;;22.20;99.90;;;;;;6231547;28;90051;-67
2022/10/30 03:59:49;;;;;;;10.23;9.30;;;22.30;99.90;;;;;;6228139;28;90003;-67
2022/10/30 04:02:52;;;;;;;10.85;9.80;;;22.30;99.90;;;;;;6227272;28;89140;-66
2022/10/30 04:05:54;;;;;;;11.27;10.18;;;22.20;99.90;;;;;;6209774;28;89075;-67
2022/10/30 04:08:58;;;;;;;10.70;9.60;;;22.20;99.90;;;;;;6229772;28;89117;-67
2022/10/30 04:12:00;;;;;;;10.40;9.40;;;22.20;99.90;;;;;;6219425;28;88998;-67
2022/10/30 04:15:02;;;;;;;10.02;9.13;;;22.20;99.90;;;;;;6219359;28;89052;-66
2022/10/30 04:18:04;;;;;;;9.88;8.88;;;22.20;99.90;;;;;;6229923;28;87283;-66
2022/10/30 04:21:06;;;;;;;10.00;9.00;;;22.20;99.90;;;;;;6230852;28;89150;-67
2022/10/30 04:24:10;;;;;;;9.95;8.95;;;22.20;99.90;;;;;;6217314;28;89038;-66
2022/10/30 04:27:12;;;;;;;9.77;8.77;;;22.20;99.90;;;;;;6217975;28;90562;-67
2022/10/30 04:30:18;;;;;;;9.60;8.70;;;22.20;99.90;;;;;;6231837;28;88977;-66
2022/10/30 04:33:20;;;;;;;9.50;8.60;;;22.20;99.90;;;;;;6230927;28;89008;-66
2022/10/30 04:36:28;;;;;;;10.20;9.20;;;22.20;99.90;;;;;;6211305;28;88006;-66
2022/10/30 04:39:32;;;;;;;9.50;8.55;;;22.20;99.90;;;;;;6204958;28;89065;-66
2022/10/30 04:42:34;;;;;;;9.50;8.60;;;22.20;99.90;;;;;;6213051;28;89103;-66
2022/10/30 04:45:37;;;;;;;9.00;8.10;;;22.20;99.90;;;;;;6230434;28;88991;-66
2022/10/30 04:48:39;;;;;;;9.60;8.60;;;22.10;99.90;;;;;;6217353;28;87506;-66
2022/10/30 04:51:42;;;;;;;8.98;8.07;;;22.20;99.90;;;;;;6218935;28;89215;-66
2022/10/30 04:54:45;;;;;;;9.20;8.30;;;22.20;99.90;;;;;;6231315;28;89177;-66
2022/10/30 04:57:47;;;;;;;8.90;8.10;;;22.20;99.90;;;;;;6229267;28;90029;-67
2022/10/30 05:00:49;;;;;;;9.77;8.75;;;22.20;99.90;;;;;;6226759;28;89018;-66
2022/10/30 05:03:51;;;;;;;8.77;7.97;;;22.20;99.90;;;;;;6231507;28;89472;-67
2022/10/30 05:06:53;;;;;;;8.48;7.68;;;22.20;99.90;;;;;;6210967;28;89115;-66
2022/10/30 05:09:56;;;;;;;8.88;7.97;;;22.20;99.90;;;;;;6228966;28;87994;-66
2022/10/30 05:12:59;;;;;;;8.43;7.63;;;22.20;99.90;;;;;;6222489;28;89199;-67
2022/10/30 05:16:01;;;;;;;8.35;7.55;;;22.20;99.90;;;;;;6212632;28;88286;-66
2022/10/30 05:19:03;;;;;;;7.80;7.10;;;22.30;99.90;;;;;;6227875;28;87119;-66
2022/10/30 05:22:05;;;;;;;8.40;7.60;;;22.30;99.90;;;;;;6215879;28;88998;-66
2022/10/30 05:25:08;;;;;;;8.27;7.50;;;22.30;99.90;;;;;;6230287;28;89076;-66
2022/10/30 05:28:11;;;;;;;8.15;7.35;;;22.30;99.90;;;;;;6228448;28;89986;-66
2022/10/30 05:31:13;;;;;;;8.45;7.55;;;22.30;99.90;;;;;;6228050;28;89437;-66
2022/10/30 05:34:15;;;;;;;8.85;7.95;;;22.30;99.90;;;;;;6217133;28;88988;-66
2022/10/30 05:37:17;;;;;;;7.97;7.28;;;22.30;99.90;;;;;;6231093;28;90898;-67
2022/10/30 05:40:20;;;;;;;8.07;7.28;;;22.30;99.90;;;;;;6220159;28;89282;-67
2022/10/30 05:43:22;;;;;;;8.00;7.10;;;22.40;99.90;;;;;;6217255;28;89029;-67
2022/10/30 05:46:24;;;;;;;7.82;7.07;;;22.30;99.90;;;;;;6215535;28;89626;-66
2022/10/30 05:49:27;;;;;;;7.78;7.07;;;22.40;99.90;;;;;;6219256;28;88267;-66
2022/10/30 05:52:29;;;;;;;8.40;7.60;;;22.30;99.90;;;;;;6233650;28;89035;-66
2022/10/30 05:55:32;;;;;;;8.13;7.32;;;22.40;99.90;;;;;;6225038;28;88978;-66
2022/10/30 05:58:34;;;;;;;7.75;6.97;;;22.40;99.90;;;;;;6222800;28;90038;-66
2022/10/30 06:01:36;;;;;;;7.65;6.95;;;22.40;99.90;;;;;;6215865;28;89172;-66
2022/10/30 06:04:38;;;;;;;7.80;7.00;;;22.40;99.90;;;;;;6233282;28;89191;-66
2022/10/30 06:07:40;;;;;;;8.05;7.25;;;22.40;99.90;;;;;;6233510;28;89004;-66
2022/10/30 06:10:44;;;;;;;7.68;6.97;;;22.40;99.90;;;;;;6233871;28;89382;-67
2022/10/30 06:13:48;;;;;;;7.40;6.70;;;22.40;99.90;;;;;;6234054;28;89371;-66
2022/10/30 06:16:50;;;;;;;7.05;6.35;;;22.40;99.90;;;;;;6222152;28;89170;-66
2022/10/30 06:19:52;;;;;;;7.25;6.60;;;22.40;99.90;;;;;;6222480;28;88358;-66
2022/10/30 06:22:55;;;;;;;6.95;6.32;;;22.50;99.90;;;;;;6223827;28;89440;-66
2022/10/30 06:25:58;;;;;;;7.22;6.53;;;22.50;99.90;;;;;;6225343;28;89455;-66
2022/10/30 06:29:00;;;;;;;6.93;6.32;;;22.50;99.90;;;;;;6232268;28;90099;-66
2022/10/30 06:32:02;;;;;;;7.88;6.75;;;22.50;99.90;;;;;;6233153;28;89193;-66
2022/10/30 06:35:04;;;;;;;6.45;5.85;;;22.50;99.90;;;;;;6221929;28;89615;-66
2022/10/30 06:38:07;;;;;;;7.10;6.47;;;22.50;99.90;;;;;;6233042;28;89062;-66
2022/10/30 06:41:11;;;;;;;6.28;5.68;;;22.50;99.90;;;;;;6218715;28;90516;-66
2022/10/30 06:44:13;;;;;;;7.68;6.70;;;22.50;99.90;;;;;;6223323;28;89421;-66
2022/10/30 06:47:15;;;;;;;7.72;6.82;;;22.50;99.90;;;;;;6225597;28;89141;-66
2022/10/30 06:50:19;;;;;;;7.97;7.20;;;22.50;99.90;;;;;;6228460;28;88452;-66
2022/10/30 06:53:21;;;;;;;8.68;7.75;;;22.50;99.90;;;;;;6232841;28;89034;-66
2022/10/30 06:56:24;;;;;;;8.35;7.55;;;22.50;99.90;;;;;;6225839;28;89075;-67
2022/10/30 06:59:26;;;;;;;7.95;7.22;;;22.50;99.90;;;;;;6225602;28;90954;-66
2022/10/30 07:02:28;;;;;;;8.23;7.43;;;22.50;99.90;;;;;;6225460;28;89008;-65
2022/10/30 07:05:31;;;;;;;8.25;7.07;;;22.60;99.90;;;;;;6233715;28;89022;-67
2022/10/30 07:08:32;;;;;;;8.93;8.02;;;22.60;99.90;;;;;;6219167;28;89064;-65
2022/10/30 07:11:36;;;;;;;8.00;7.20;;;22.60;99.90;;;;;;6231616;28;89587;-65
2022/10/30 07:14:38;;;;;;;7.70;6.90;;;22.70;99.90;;;;;;6218707;28;89161;-66
2022/10/30 07:17:40;;;;;;;7.82;7.03;;;22.70;99.90;;;;;;6223478;28;89245;-65
2022/10/30 07:20:42;;;;;;;8.00;7.20;;;22.70;99.90;;;;;;6226616;28;88877;-67
2022/10/30 07:23:44;;;;;;;8.13;7.35;;;22.70;99.90;;;;;;6230842;28;89460;-66
2022/10/30 07:26:47;;;;;;;8.27;6.93;;;22.70;99.90;;;;;;6222480;28;87929;-67
2022/10/30 07:29:49;;;;;;;7.40;6.70;;;22.70;99.90;;;;;;6228974;28;90058;-67
2022/10/30 07:32:58;;;;;;;7.63;6.90;;;22.80;99.90;;;;;;6222081;28;89076;-67
2022/10/30 07:36:01;;;;;;;7.40;6.70;;;22.80;99.90;;;;;;6231775;28;89111;-67
2022/10/30 07:39:03;;;;;;;7.50;6.80;;;22.80;99.90;;;;;;6225573;28;89020;-67
2022/10/30 07:42:07;;;;;;;8.13;7.18;;;22.80;99.90;;;;;;6224523;28;87981;-67
2022/10/30 07:45:09;;;;;;;8.32;6.82;;;22.80;99.90;;;;;;6232123;28;88997;-67
2022/10/30 07:48:11;;;;;;;9.18;7.05;;;22.80;99.90;;;;;;6219677;28;89159;-67
2022/10/30 07:51:14;;;;;;;7.93;6.93;;;22.90;99.90;;;;;;6216790;28;88708;-67
2022/10/30 07:54:16;;;;;;;7.68;6.57;;;22.80;99.90;;;;;;6215348;28;90898;-67
2022/10/30 07:57:19;;;;;;;11.13;7.10;;;22.80;99.90;;;;;;6222598;28;89412;-67
2022/10/30 08:00:21;;;;;;;8.30;7.10;;;22.90;99.90;;;;;;6216474;28;90102;-67
2022/10/30 08:03:23;;;;;;;8.75;7.30;;;22.80;99.90;;;;;;6229831;28;87985;-67
2022/10/30 08:06:25;;;;;;;9.57;7.00;;;22.80;99.90;;;;;;6218505;28;89069;-67
2022/10/30 08:09:27;;;;;;;10.18;7.10;;;22.80;99.90;;;;;;6229739;28;89011;-67
2022/10/30 08:12:33;;;;;;;9.63;7.32;;;22.90;99.90;;;;;;6225995;28;89073;-67
2022/10/30 08:15:35;;;;;;;16.50;8.27;;;22.90;99.90;;;;;;6212662;28;89080;-67
2022/10/30 08:18:40;;;;;;;14.18;7.95;;;22.90;99.90;;;;;;6228818;28;89114;-67
2022/10/30 08:21:42;;;;;;;15.30;8.45;;;22.90;99.90;;;;;;6212951;28;88504;-67
2022/10/30 08:24:44;;;;;;;13.05;8.20;;;22.90;99.90;;;;;;6217823;28;89711;-68
2022/10/30 08:27:53;;;;;;;14.85;7.85;;;22.90;99.90;;;;;;6218522;28;88029;-67
2022/10/30 08:30:55;;;;;;;13.02;8.20;;;22.90;99.90;;;;;;6208507;28;90059;-67
2022/10/30 08:33:57;;;;;;;12.02;7.55;;;22.90;99.90;;;;;;6224671;28;89038;-67
2022/10/30 08:37:00;;;;;;;12.43;8.48;;;22.90;99.90;;;;;;6225831;28;89121;-67
2022/10/30 08:40:02;;;;;;;11.38;7.72;;;22.90;99.90;;;;;;6224364;28;89014;-67
2022/10/30 08:43:05;;;;;;;12.32;7.97;;;22.90;99.90;;;;;;6216278;28;89085;-67
2022/10/30 08:46:07;;;;;;;12.93;7.57;;;22.90;99.90;;;;;;6227087;28;89362;-67
2022/10/30 08:49:09;;;;;;;13.25;8.07;;;22.90;99.90;;;;;;6226239;28;88140;-67
2022/10/30 08:52:11;;;;;;;11.68;7.93;;;22.90;99.90;;;;;;6217840;28;88386;-67
2022/10/30 08:55:13;;;;;;;12.30;7.90;;;23.00;99.90;;;;;;6226831;28;87965;-66
2022/10/30 08:58:17;;;;;;;13.10;8.20;;;23.00;99.90;;;;;;6229683;28;89161;-67
2022/10/30 09:01:19;;;;;;;10.95;7.80;;;22.90;99.90;;;;;;6216779;28;90363;-67
2022/10/30 09:04:21;;;;;;;13.18;7.68;;;22.90;99.90;;;;;;6230740;28;89456;-67
2022/10/30 09:07:23;;;;;;;11.68;6.93;;;23.00;99.90;;;;;;6229960;28;89100;-67
2022/10/30 09:10:25;;;;;;;10.82;7.50;;;23.00;99.90;;;;;;6227478;28;89064;-67
2022/10/30 09:13:28;;;;;;;9.70;7.15;;;23.00;99.90;;;;;;6215501;28;89122;-67
2022/10/30 09:16:30;;;;;;;10.57;7.20;;;23.00;99.90;;;;;;6216043;28;89453;-67
2022/10/30 09:19:32;;;;;;;10.85;6.93;;;23.00;99.90;;;;;;6217167;28;87891;-67
2022/10/30 09:22:34;;;;;;;9.55;6.85;;;23.00;99.90;;;;;;6228502;28;88244;-67
2022/10/30 09:25:36;;;;;;;9.88;7.18;;;23.00;99.90;;;;;;6220338;28;89445;-67
2022/10/30 09:28:40;;;;;;;9.57;6.78;;;23.00;99.90;;;;;;6222057;28;89140;-67
2022/10/30 09:31:42;;;;;;;10.00;7.53;;;23.00;99.90;;;;;;6216469;28;89944;-67
2022/10/30 09:34:44;;;;;;;8.45;6.53;;;23.00;99.90;;;;;;6234108;28;89925;-67
2022/10/30 09:37:46;;;;;;;8.65;6.60;;;23.00;99.90;;;;;;6230872;28;89118;-67
2022/10/30 09:41:04;;;;;;;8.90;6.50;;;23.10;99.90;;;;;;6226120;28;89240;-67
2022/10/30 09:44:22;;;;;;;8.10;6.45;;;23.10;99.90;;;;;;6229856;28;89118;-67
2022/10/30 09:47:37;;;;;;;8.73;6.68;;;23.00;99.90;;;;;;6226151;28;89070;-67
2022/10/30 09:50:45;;;;;;;7.03;6.22;;;23.10;99.90;;;;;;6230288;28;89191;-67
2022/10/30 09:53:59;;;;;;;7.60;5.90;;;23.10;99.90;;;;;;6209712;28;88282;-67
2022/10/30 09:57:06;;;;;;;8.25;6.78;;;23.10;99.90;;;;;;6222763;28;89194;-67
2022/10/30 10:00:12;;;;;;;10.07;6.30;;;23.10;99.90;;;;;;6222882;28;89046;-67
2022/10/30 10:03:28;;;;;;;8.27;6.05;;;23.10;99.90;;;;;;6231806;28;89922;-67
2022/10/30 10:06:32;;;;;;;9.90;6.70;;;23.10;99.90;;;;;;6233715;28;89020;-68
2022/10/30 10:09:36;;;;;;;8.05;6.25;;;23.10;99.90;;;;;;6220096;28;89127;-68
2022/10/30 10:12:43;;;;;;;8.05;6.10;;;23.10;99.90;;;;;;6214175;28;89187;-67
2022/10/30 10:15:49;;;;;;;7.45;6.13;;;23.10;99.90;;;;;;6228699;28;89151;-67
2022/10/30 10:18:58;;;;;;;7.95;6.00;;;23.20;99.90;;;;;;6233917;28;88931;-67
2022/10/30 10:22:02;;;;;;;8.52;6.20;;;23.10;99.90;;;;;;6224168;28;89157;-68
2022/10/30 10:25:09;;;;;;;7.97;6.00;;;23.10;99.90;;;;;;6230980;28;88352;-67
2022/10/30 10:28:23;;;;;;;8.52;6.22;;;23.10;99.90;;;;;;6221450;28;88976;-67
2022/10/30 10:31:37;;;;;;;8.23;6.25;;;23.20;99.90;;;;;;6222790;28;89444;-68
2022/10/30 10:34:56;;;;;;;7.88;5.30;;;23.10;99.90;;;;;;6225918;28;90304;-67
2022/10/30 10:38:06;;;;;;;8.25;6.10;;;23.10;99.90;;;;;;6219742;28;89228;-67
2022/10/30 10:41:18;;;;;;;7.18;5.88;;;23.10;99.90;;;;;;6222495;28;89140;-67
2022/10/30 10:44:34;;;;;;;7.88;5.95;;;23.10;99.90;;;;;;6233029;28;89392;-67
2022/10/30 10:47:56;;;;;;;7.20;5.95;;;23.20;99.90;;;;;;6227001;28;88935;-68
2022/10/30 10:51:03;;;;;;;6.95;5.47;;;23.20;99.90;;;;;;6229205;28;88936;-67
2022/10/30 10:54:10;;;;;;;6.72;5.63;;;23.20;99.90;;;;;;6232460;28;89325;-67
2022/10/30 10:57:25;;;;;;;8.45;6.07;;;23.10;99.90;;;;;;6228147;28;88487;-67
2022/10/30 11:00:30;;;;;;;7.13;5.75;;;23.10;99.90;;;;;;6232750;28;89905;-67
2022/10/30 11:03:45;;;;;;;6.68;5.55;;;23.10;99.90;;;;;;6209021;28;89073;-68
2022/10/30 11:06:50;;;;;;;7.57;5.90;;;23.20;99.90;;;;;;6220550;28;90712;-68
2022/10/30 11:09:53;;;;;;;8.70;6.15;;;23.20;99.90;;;;;;6232103;28;89524;-67
2022/10/30 11:12:55;;;;;;;7.05;5.97;;;23.10;99.90;;;;;;6231140;28;89050;-67
2022/10/30 11:16:04;;;;;;;8.00;5.93;;;23.10;99.90;;;;;;6219851;28;89147;-67
2022/10/30 11:19:09;;;;;;;6.93;6.03;;;23.20;99.90;;;;;;6225016;28;88008;-67
2022/10/30 11:22:22;;;;;;;6.47;5.72;;;23.10;99.90;;;;;;6215156;28;89311;-67
2022/10/30 11:25:26;;;;;;;7.13;5.53;;;23.10;99.90;;;;;;6220370;28;87966;-67
2022/10/30 11:28:36;;;;;;;7.20;6.03;;;23.10;99.90;;;;;;6223397;28;88370;-67
2022/10/30 11:31:39;;;;;;;7.50;5.70;;;23.20;99.90;;;;;;6229170;28;89363;-67
2022/10/30 11:34:43;;;;;;;7.20;5.90;;;23.10;99.90;;;;;;6232424;28;89102;-68
2022/10/30 11:37:47;;;;;;;7.90;5.78;;;23.10;99.90;;;;;;6226806;28;90363;-67
2022/10/30 11:40:52;;;;;;;7.18;5.80;;;23.10;99.90;;;;;;6220573;28;90513;-67
2022/10/30 11:43:54;;;;;;;9.68;6.32;;;23.10;99.90;;;;;;6221249;28;89118;-67
2022/10/30 11:46:57;;;;;;;7.18;5.90;;;23.10;99.90;;;;;;6230779;28;87971;-67
2022/10/30 11:50:02;;;;;;;6.93;5.57;;;23.10;99.90;;;;;;6218738;28;89126;-67
2022/10/30 11:53:13;;;;;;;7.95;5.82;;;23.10;99.90;;;;;;6232188;28;89134;-68
2022/10/30 11:56:18;;;;;;;8.05;5.85;;;23.10;99.90;;;;;;6218488;28;88233;-68
2022/10/30 11:59:23;;;;;;;6.22;5.20;;;23.10;99.90;;;;;;6232568;28;88385;-68
2022/10/30 12:02:27;;;;;;;6.82;5.72;;;23.10;99.90;;;;;;6215541;28;89223;-67
2022/10/30 12:05:34;;;;;;;8.10;6.03;;;23.20;99.90;;;;;;6220256;28;88988;-68
2022/10/30 12:08:36;;;;;;;7.35;5.85;;;23.10;99.90;;;;;;6205978;28;89983;-68
2022/10/30 12:11:42;;;;;;;6.72;5.60;;;23.10;99.90;;;;;;6232357;28;87954;-68
2022/10/30 12:14:44;;;;;;;7.93;5.70;;;23.10;99.90;;;;;;6232336;28;88838;-68
2022/10/30 12:17:52;;;;;;;7.38;5.85;;;23.10;99.90;;;;;;6231783;28;89026;-67
2022/10/30 12:20:57;;;;;;;7.22;5.57;;;23.10;99.90;;;;;;6213679;28;88822;-68
2022/10/30 12:24:05;;;;;;;6.45;5.05;;;23.10;99.90;;;;;;6227676;28;89105;-67
2022/10/30 12:27:14;;;;;;;7.43;5.45;;;23.10;99.90;;;;;;6217278;28;89144;-68
2022/10/30 12:30:18;;;;;;;7.45;5.57;;;23.20;99.90;;;;;;6227484;28;88214;-68
2022/10/30 12:33:25;;;;;;;6.78;5.47;;;23.10;99.90;;;;;;6230562;28;89184;-68
2022/10/30 12:36:34;;;;;;;6.88;5.72;;;23.10;99.90;;;;;;6217944;28;89161;-68
2022/10/30 12:39:53;;;;;;;6.97;5.68;;;23.20;99.90;;;;;;6216891;28;89995;-68
2022/10/30 12:43:00;;;;;;;7.47;5.47;;;23.10;99.90;;;;;;6230981;28;88080;-68
2022/10/30 12:46:14;;;;;;;6.60;5.28;;;23.20;99.90;;;;;;6230968;28;89165;-68
2022/10/30 12:49:23;;;;;;;7.50;5.30;;;23.20;99.90;;;;;;6230193;28;89061;-68
2022/10/30 12:52:33;;;;;;;7.18;5.68;;;23.20;99.90;;;;;;6220043;28;89071;-68
2022/10/30 12:55:39;;;;;;;7.22;5.78;;;23.10;99.90;;;;;;6228259;28;89005;-68
2022/10/30 12:58:45;;;;;;;6.80;5.43;;;23.20;99.90;;;;;;6230946;28;89187;-68
2022/10/30 13:01:55;;;;;;;6.88;5.38;;;23.10;99.90;;;;;;6231741;28;88395;-67
2022/10/30 13:05:02;;;;;;;6.72;5.47;;;23.20;99.90;;;;;;6229932;28;89044;-67
2022/10/30 13:08:20;;;;;;;6.18;5.30;;;23.10;99.90;;;;;;6228235;28;88241;-68
2022/10/30 13:11:33;;;;;;;6.47;5.35;;;23.10;99.90;;;;;;6220111;28;89957;-68
2022/10/30 13:14:41;;;;;;;5.43;4.68;;;23.10;99.90;;;;;;6229392;28;88507;-68
2022/10/30 13:17:43;;;;;;;6.35;5.22;;;23.10;99.90;;;;;;6228825;28;89243;-68
2022/10/30 13:21:01;;;;;;;6.30;5.22;;;23.10;99.90;;;;;;6226506;28;89021;-68
2022/10/30 13:24:10;;;;;;;7.03;5.28;;;23.10;99.90;;;;;;6224908;28;88302;-68
2022/10/30 13:27:16;;;;;;;7.50;5.57;;;23.20;99.90;;;;;;6217525;28;89670;-67
2022/10/30 13:30:20;;;;;;;7.13;5.10;;;23.10;99.90;;;;;;6231039;28;89023;-68
2022/10/30 13:33:29;;;;;;;6.45;5.05;;;23.10;99.90;;;;;;6218086;28;88842;-68
2022/10/30 13:36:42;;;;;;;5.65;4.95;;;23.10;99.90;;;;;;6217222;28;89256;-67
2022/10/30 13:39:52;;;;;;;6.30;5.28;;;23.10;99.90;;;;;;6222657;28;88444;-67
2022/10/30 13:43:02;;;;;;;5.70;4.85;;;23.10;99.90;;;;;;6219513;28;90057;-68
2022/10/30 13:46:17;;;;;;;6.40;5.28;;;23.10;99.90;;;;;;6218069;28;87969;-68
2022/10/30 13:49:46;;;;;;;5.95;5.15;;;23.10;99.90;;;;;;6229356;28;87943;-68
2022/10/30 13:52:52;;;;;;;5.85;5.25;;;23.10;99.90;;;;;;6205818;28;88268;-68
2022/10/30 13:55:57;;;;;;;6.47;4.80;;;23.10;99.90;;;;;;6217584;28;89453;-68
2022/10/30 13:59:09;;;;;;;7.13;5.20;;;23.10;99.90;;;;;;6229202;28;89284;-68
2022/10/30 14:02:21;;;;;;;7.60;5.38;;;23.10;99.90;;;;;;6230069;28;89267;-67
2022/10/30 14:05:31;;;;;;;7.40;5.47;;;23.10;99.90;;;;;;6226962;28;88319;-68
2022/10/30 14:08:39;;;;;;;6.65;5.05;;;23.10;99.90;;;;;;6218783;28;89065;-68
2022/10/30 14:11:43;;;;;;;6.93;5.30;;;23.10;99.90;;;;;;6220573;28;88004;-68
2022/10/30 14:14:47;;;;;;;5.70;4.93;;;23.10;99.90;;;;;;6223004;28;91711;-68
2022/10/30 14:18:28;;;;;;;6.28;4.95;;;23.10;99.90;;;;;;6232808;28;89128;-68
2022/10/30 14:21:50;;;;;;;6.53;5.10;;;23.10;99.90;;;;;;6215645;28;88939;-68
2022/10/30 14:24:52;;;;;;;6.30;4.82;;;23.10;99.90;;;;;;6209478;28;89485;-68
2022/10/30 14:27:56;;;;;;;6.65;5.10;;;23.10;99.90;;;;;;6233631;28;89101;-67
2022/10/30 14:31:02;;;;;;;6.18;5.15;;;23.10;99.90;;;;;;6233007;28;89422;-68
2022/10/30 14:34:04;;;;;;;5.57;5.00;;;23.10;99.90;;;;;;6220097;28;89070;-68
2022/10/30 14:37:06;;;;;;;6.13;4.95;;;23.10;99.90;;;;;;6222666;28;88322;-67
2022/10/30 14:40:36;;;;;;;5.43;4.63;;;23.10;99.90;;;;;;6219464;28;89100;-68
2022/10/30 14:43:47;;;;;;;5.88;4.68;;;23.10;99.90;;;;;;6233134;28;89575;-67
2022/10/30 14:47:12;;;;;;;6.13;4.88;;;23.10;99.90;;;;;;6227657;28;89967;-68
2022/10/30 14:50:20;;;;;;;5.85;4.65;;;23.10;99.90;;;;;;6218797;28;89100;-69
2022/10/30 14:53:34;;;;;;;5.40;4.90;;;23.10;99.90;;;;;;6222712;28;89248;-69
2022/10/30 14:56:41;;;;;;;6.72;5.03;;;23.10;99.90;;;;;;6219845;28;89927;-69
2022/10/30 14:59:45;;;;;;;6.10;5.13;;;23.10;99.90;;;;;;6220917;28;89189;-69
2022/10/30 15:02:56;;;;;;;7.40;5.13;;;23.10;99.90;;;;;;6230226;28;89201;-68
2022/10/30 15:06:02;;;;;;;7.03;5.22;;;23.10;99.90;;;;;;6230121;28;89411;-70
2022/10/30 15:09:13;;;;;;;7.20;5.50;;;23.20;99.90;;;;;;6223245;28;88412;-69
2022/10/30 15:12:33;;;;;;;7.10;5.47;;;23.20;99.90;;;;;;6214352;28;89201;-68
2022/10/30 15:15:36;;;;;;;7.07;5.20;;;23.30;99.90;;;;;;6219160;28;89344;-68
2022/10/30 15:18:40;;;;;;;6.60;5.43;;;23.30;99.90;;;;;;6222852;28;90559;-68
2022/10/30 15:21:44;;;;;;;6.78;5.00;;;23.30;99.90;;;;;;6221268;28;89107;-69
2022/10/30 15:24:46;;;;;;;7.28;5.20;;;23.30;99.90;;;;;;6216074;28;89564;-68
2022/10/30 15:27:52;;;;;;;6.65;5.45;;;23.40;99.90;;;;;;6218586;28;89515;-69
2022/10/30 15:31:04;;;;;;;5.22;4.55;;;23.40;99.90;;;;;;6208532;28;89274;-70
2022/10/30 15:34:21;;;;;;;5.68;4.82;;;23.40;99.90;;;;;;6217910;28;89411;-70
2022/10/30 15:37:24;;;;;;;6.60;5.13;;;23.40;99.90;;;;;;6215939;28;88053;-70
2022/10/30 15:40:26;;;;;;;7.60;5.60;;;23.40;99.90;;;;;;6225457;28;88290;-69
2022/10/30 15:43:31;;;;;;;6.10;4.90;;;23.40;99.90;;;;;;6223344;28;89207;-69
2022/10/30 15:46:35;;;;;;;7.75;5.18;;;23.40;99.90;;;;;;6228735;28;89077;-70
2022/10/30 15:49:40;;;;;;;5.57;4.80;;;23.40;99.90;;;;;;6228789;28;90659;-70
2022/10/30 15:52:43;;;;;;;6.30;5.13;;;23.40;99.90;;;;;;6205562;28;88111;-70
2022/10/30 15:55:45;;;;;;;6.75;5.20;;;23.40;99.90;;;;;;6214818;28;89174;-70
2022/10/30 15:58:53;;;;;;;5.70;4.57;;;23.40;99.90;;;;;;6212956;28;89532;-70